Eudora, Kansas
Current Conditions -  °F | °C
As of 12:23 AM on Saturday 20 Dec 2014 (Local Time) from KLWC Reporting Station
Overcast Overcast  
Wind Chill: 33°   Ceiling: 1400
Heat Index: 33°   Visibility: 10mi
Dew Point: 28°   Wind: 3mph
Humidity: 82%   Direction: 220°SW
Pressure: 30.22"   Gusts: NA
Location:  38.94°N, 95.1°W
Report Text: KLWC 200623Z AUTO 22003KT 10SM OVC014 01/M02 A3022 RMK AO2 T00061022
Loading
Personal Weather Stations






























Interactive Weather Map New forecast layout! Learn more

10-Day Weather Forecast

Advertisements
Track Severe Weather on mobile